createdAt,value
2022-08-07T00:00:26.411Z,99310.89
2022-08-07T00:02:53.999Z,99312.33
2022-08-07T00:05:23.596Z,99310.27
2022-08-07T00:07:58.274Z,99306.35
2022-08-07T00:10:30.411Z,99307.19
2022-08-07T00:13:02.458Z,99303.58
2022-08-07T00:15:46.409Z,99306.22
2022-08-07T00:18:24.556Z,99310.77
2022-08-07T00:21:01.718Z,99309.10
2022-08-07T00:23:31.379Z,99309.02
2022-08-07T00:26:13.014Z,99310.09
2022-08-07T00:28:55.363Z,99308.29
2022-08-07T00:31:23.093Z,99310.29
2022-08-07T00:33:50.756Z,99308.68
2022-08-07T00:36:19.133Z,99309.73
2022-08-07T00:38:46.590Z,99306.88
2022-08-07T00:41:26.028Z,99309.03
2022-08-07T00:43:59.418Z,99309.07
2022-08-07T00:46:30.996Z,99312.02
2022-08-07T00:49:03.211Z,99309.73
2022-08-07T00:51:57.097Z,99313.44
2022-08-07T00:54:19.861Z,99309.12
2022-08-07T00:56:49.750Z,99309.59
2022-08-07T00:59:20.255Z,99314.30
2022-08-07T01:02:04.252Z,99316.29
2022-08-07T01:04:43.255Z,99320.98
2022-08-07T01:07:12.663Z,99323.96
2022-08-07T01:10:05.669Z,99325.02
2022-08-07T01:12:30.892Z,99326.44
2022-08-07T01:15:01.406Z,99326.38
2022-08-07T01:17:33.033Z,99327.14
2022-08-07T01:20:16.881Z,99328.23
2022-08-07T01:22:54.159Z,99325.19
2022-08-07T01:25:55.880Z,99328.97
2022-08-07T01:28:23.522Z,99330.49
2022-08-07T01:30:55.485Z,99330.13
2022-08-07T01:33:25.252Z,99329.24
2022-08-07T01:36:16.734Z,99332.17
2022-08-07T01:38:45.974Z,99329.21
2022-08-07T01:41:26.110Z,99330.70
2022-08-07T01:43:57.168Z,99331.79
2022-08-07T01:46:26.744Z,99331.38
2022-08-07T01:48:55.051Z,99334.13
2022-08-07T01:52:04.055Z,99337.20
2022-08-07T01:54:32.650Z,99339.99
2022-08-07T01:57:20.406Z,99339.99
2022-08-07T02:00:00.656Z,99340.73
2022-08-07T02:03:18.504Z,99335.30
2022-08-07T02:05:47.555Z,99337.11
2022-08-07T02:08:23.779Z,99336.34
2022-08-07T02:10:55.462Z,99336.67
2022-08-07T02:13:59.839Z,99331.69
2022-08-07T02:16:29.951Z,99335.31
2022-08-07T02:19:05.685Z,99329.05
2022-08-07T02:21:56.509Z,99327.46
2022-08-07T02:24:25.563Z,99329.84
2022-08-07T02:27:01.635Z,99332.77
2022-08-07T02:29:31.882Z,99330.90
2022-08-07T02:32:01.943Z,99335.73
2022-08-07T02:34:33.013Z,99329.63
2022-08-07T02:37:08.355Z,99327.86
2022-08-07T02:39:42.964Z,99327.60
2022-08-07T02:42:14.649Z,99329.65
2022-08-07T02:44:48.196Z,99329.98
2022-08-07T02:47:19.717Z,99328.98
2022-08-07T02:49:56.109Z,99335.46
2022-08-07T02:52:47.914Z,99332.14
2022-08-07T02:55:28.413Z,99335.86
2022-08-07T02:58:12.618Z,99336.40
2022-08-07T03:00:46.717Z,99339.54
2022-08-07T03:03:21.065Z,99336.73
2022-08-07T03:05:56.599Z,99338.48
2022-08-07T03:08:26.782Z,99342.98
2022-08-07T03:10:57.622Z,99343.65
2022-08-07T03:13:29.616Z,99340.49
2022-08-07T03:16:07.526Z,99340.70
2022-08-07T03:18:36.192Z,99342.27
2022-08-07T03:21:08.691Z,99340.52
2022-08-07T03:24:19.990Z,99344.09
2022-08-07T03:26:33.679Z,99345.25
2022-08-07T03:29:11.110Z,99347.39
2022-08-07T03:31:46.213Z,99350.80
2022-08-07T03:34:22.352Z,99353.52
2022-08-07T03:36:54.245Z,99351.52
2022-08-07T03:39:56.616Z,99356.20
2022-08-07T03:42:12.354Z,99358.89
2022-08-07T03:44:40.782Z,99362.94
2022-08-07T03:47:14.380Z,99366.23
2022-08-07T03:49:48.000Z,99365.55
2022-08-07T03:52:27.382Z,99368.52
2022-08-07T03:55:07.486Z,99371.16
2022-08-07T03:58:34.082Z,99368.64
2022-08-07T04:00:33.613Z,99368.10
2022-08-07T04:03:04.282Z,99369.79
2022-08-07T04:05:39.379Z,99370.67
2022-08-07T04:08:18.525Z,99369.95
2022-08-07T04:10:54.528Z,99373.95
2022-08-07T04:14:10.311Z,99375.69
2022-08-07T04:16:31.220Z,99373.10
2022-08-07T04:19:12.352Z,99374.73
2022-08-07T04:21:48.023Z,99372.96
2022-08-07T04:24:33.898Z,99373.36
2022-08-07T04:27:15.306Z,99379.13
2022-08-07T04:30:02.202Z,99377.36
2022-08-07T04:32:48.479Z,99378.88
2022-08-07T04:35:26.800Z,99381.20
2022-08-07T04:38:06.436Z,99380.54
2022-08-07T04:40:51.194Z,99378.20
2022-08-07T04:44:11.806Z,99382.42
2022-08-07T04:47:04.776Z,99383.48
2022-08-07T04:50:12.148Z,99384.44
2022-08-07T04:52:54.246Z,99389.92
2022-08-07T04:58:12.323Z,99386.40
2022-08-07T05:00:07.864Z,99388.49
2022-08-07T05:02:35.782Z,99387.45
2022-08-07T05:05:52.685Z,99388.60
2022-08-07T05:09:00.126Z,99390.35
2022-08-07T05:11:57.057Z,99390.59
2022-08-07T05:14:52.167Z,99390.16
2022-08-07T05:17:52.503Z,99397.52
2022-08-07T05:20:10.083Z,99406.71
2022-08-07T05:22:39.088Z,99407.58
2022-08-07T05:25:11.770Z,99400.52
2022-08-07T05:28:16.140Z,99407.39
2022-08-07T05:30:42.852Z,99407.80
2022-08-07T05:33:13.154Z,99403.69
2022-08-07T05:35:43.826Z,99404.72
2022-08-07T05:38:13.193Z,99408.16
2022-08-07T05:41:02.168Z,99405.20
2022-08-07T05:43:43.444Z,99408.48
2022-08-07T05:46:29.406Z,99407.05
2022-08-07T05:48:59.476Z,99410.23
2022-08-07T05:51:31.417Z,99410.86
2022-08-07T05:54:13.263Z,99416.99
2022-08-07T05:56:51.274Z,99417.34
2022-08-07T05:59:21.352Z,99420.96
2022-08-07T06:01:54.792Z,99419.57
2022-08-07T06:04:26.332Z,99420.64
2022-08-07T06:07:03.978Z,99422.62
2022-08-07T06:09:56.604Z,99427.48
2022-08-07T06:12:31.687Z,99426.44
2022-08-07T06:15:05.750Z,99429.15
2022-08-07T06:17:38.035Z,99427.91
2022-08-07T06:20:12.749Z,99431.33
2022-08-07T06:23:02.326Z,99435.38
2022-08-07T06:25:54.859Z,99435.45
2022-08-07T06:28:27.193Z,99438.85
2022-08-07T06:30:55.978Z,99431.70
2022-08-07T06:33:24.823Z,99429.80
2022-08-07T06:36:12.001Z,99427.28
2022-08-07T06:38:58.875Z,99435.73
2022-08-07T06:42:01.951Z,99432.05
2022-08-07T06:44:41.282Z,99428.23
2022-08-07T06:47:10.308Z,99431.98
2022-08-07T06:49:51.920Z,99425.45
2022-08-07T06:52:38.163Z,99427.29
2022-08-07T06:55:33.949Z,99423.42
2022-08-07T06:58:11.517Z,99418.95
2022-08-07T07:00:47.021Z,99419.20
2022-08-07T07:03:26.351Z,99421.09
2022-08-07T07:06:11.531Z,99418.93
2022-08-07T07:08:39.894Z,99424.80
2022-08-07T07:12:08.868Z,99424.20
2022-08-07T07:14:03.801Z,99431.20
2022-08-07T07:16:45.445Z,99435.29
2022-08-07T07:19:55.923Z,99443.21
2022-08-07T07:22:36.560Z,99436.73
2022-08-07T07:25:13.975Z,99443.01
2022-08-07T07:27:56.083Z,99437.55
2022-08-07T07:30:38.616Z,99439.97
2022-08-07T07:33:12.028Z,99437.23
2022-08-07T07:35:50.648Z,99443.50
2022-08-07T07:38:31.663Z,99449.72
2022-08-07T07:41:08.614Z,99445.98
2022-08-07T07:44:14.732Z,99450.64
2022-08-07T07:46:39.931Z,99443.52
2022-08-07T07:50:32.477Z,99442.60
2022-08-07T07:52:10.401Z,99447.05
2022-08-07T07:54:40.013Z,99449.14
2022-08-07T07:57:43.598Z,99447.84
2022-08-07T08:00:10.048Z,99450.70
2022-08-07T08:03:01.135Z,99449.84
2022-08-07T08:05:42.829Z,99450.07
2022-08-07T08:08:35.708Z,99452.79
2022-08-07T08:11:16.153Z,99454.46
2022-08-07T08:13:53.988Z,99448.58
2022-08-07T08:16:40.746Z,99445.26
2022-08-07T08:20:19.750Z,99447.01
2022-08-07T08:22:33.002Z,99447.95
2022-08-07T08:25:41.867Z,99453.96
2022-08-07T08:28:17.026Z,99452.02
2022-08-07T08:30:57.498Z,99444.33
2022-08-07T08:33:33.094Z,99448.61
2022-08-07T08:36:03.226Z,99445.98
2022-08-07T08:38:50.857Z,99439.29
2022-08-07T08:41:58.667Z,99441.70
2022-08-07T08:44:49.464Z,99437.38
2022-08-07T08:47:31.610Z,99436.73
2022-08-07T08:50:35.378Z,99433.42
2022-08-07T08:53:34.268Z,99434.77
2022-08-07T08:56:16.965Z,99437.08
2022-08-07T08:59:12.785Z,99434.31
2022-08-07T09:02:08.756Z,99437.20
2022-08-07T09:04:58.609Z,99445.22
2022-08-07T09:07:28.835Z,99444.06
2022-08-07T09:10:19.021Z,99431.48
2022-08-07T09:13:03.721Z,99424.45
2022-08-07T09:16:21.618Z,99415.18
2022-08-07T09:18:41.743Z,99416.98
2022-08-07T09:22:22.735Z,99408.36
2022-08-07T09:25:33.868Z,99410.52
2022-08-07T09:30:03.470Z,99416.70
2022-08-07T09:31:08.680Z,99419.11
2022-08-07T09:34:08.738Z,99413.70
2022-08-07T09:37:00.110Z,99421.59
2022-08-07T09:39:54.943Z,99422.04
2022-08-07T09:42:29.303Z,99426.95
2022-08-07T09:47:25.583Z,99423.59
2022-08-07T09:48:50.121Z,99428.33
2022-08-07T09:52:16.094Z,99422.46
2022-08-07T09:54:44.146Z,99420.39
2022-08-07T09:57:46.727Z,99419.80
2022-08-07T10:00:29.935Z,99420.84
2022-08-07T10:04:06.247Z,99424.61
2022-08-07T10:06:32.084Z,99425.41
2022-08-07T10:09:34.326Z,99433.85
2022-08-07T10:12:31.154Z,99430.92
2022-08-07T10:15:32.873Z,99425.95
2022-08-07T10:18:17.571Z,99419.73
2022-08-07T10:22:14.982Z,99422.41
2022-08-07T10:24:18.637Z,99410.42
2022-08-07T10:26:58.141Z,99404.71
2022-08-07T10:29:45.786Z,99400.08
2022-08-07T10:32:51.569Z,99393.11
2022-08-07T10:35:53.508Z,99386.00
2022-08-07T10:38:48.868Z,99381.41
2022-08-07T10:41:51.894Z,99386.04
2022-08-07T10:44:39.061Z,99381.86
2022-08-07T10:48:11.403Z,99379.54
2022-08-07T10:50:52.568Z,99372.77
2022-08-07T10:53:44.069Z,99375.39
2022-08-07T10:56:34.586Z,99384.05
2022-08-07T10:59:41.304Z,99389.12
2022-08-07T11:02:35.107Z,99393.80
2022-08-07T11:05:35.691Z,99393.01
2022-08-07T11:08:30.559Z,99397.33
2022-08-07T11:11:06.526Z,99388.95
2022-08-07T11:14:46.195Z,99377.73
2022-08-07T11:16:37.278Z,99367.05
2022-08-07T11:19:35.559Z,99360.67
2022-08-07T11:22:18.808Z,99345.97
2022-08-07T11:25:14.889Z,99325.69
2022-08-07T11:28:01.269Z,99319.40
2022-08-07T11:30:43.006Z,99330.88
2022-08-07T11:33:15.094Z,99349.52
2022-08-07T11:35:59.712Z,99355.26
2022-08-07T11:38:56.460Z,99347.79
2022-08-07T11:42:02.170Z,99354.13
2022-08-07T11:44:28.456Z,99373.63
2022-08-07T11:47:39.210Z,99377.36
2022-08-07T11:50:57.911Z,99361.29
2022-08-07T11:54:10.464Z,99360.88
2022-08-07T11:56:59.872Z,99365.31
2022-08-07T12:00:10.021Z,99381.22
2022-08-07T12:02:56.165Z,99426.27
2022-08-07T12:06:02.799Z,99456.20
2022-08-07T12:09:05.584Z,99448.79
2022-08-07T12:12:10.782Z,99434.90
2022-08-07T12:14:39.232Z,99431.39
2022-08-07T12:17:20.011Z,99433.48
2022-08-07T12:20:04.716Z,99421.84
2022-08-07T12:22:58.241Z,99424.45
2022-08-07T12:26:06.139Z,99421.89
2022-08-07T12:28:57.939Z,99437.08
2022-08-07T12:31:53.304Z,99445.57
2022-08-07T12:34:33.811Z,99456.51
2022-08-07T12:37:08.336Z,99455.17
2022-08-07T12:39:50.900Z,99441.32
2022-08-07T12:42:27.880Z,99426.43
2022-08-07T12:45:05.773Z,99419.96
2022-08-07T12:48:51.822Z,99413.52
2022-08-07T12:51:21.433Z,99409.06
2022-08-07T12:54:37.305Z,99417.20
2022-08-07T12:57:09.582Z,99424.77
2022-08-07T12:59:55.475Z,99429.66
2022-08-07T13:02:25.017Z,99437.52
2022-08-07T13:06:02.707Z,99443.45
2022-08-07T13:08:31.070Z,99445.90
2022-08-07T13:11:20.133Z,99448.27
2022-08-07T13:13:58.445Z,99450.14
2022-08-07T13:17:06.248Z,99459.29
2022-08-07T13:19:51.758Z,99459.96
2022-08-07T13:22:32.523Z,99464.58
2022-08-07T13:25:24.175Z,99470.13
2022-08-07T13:28:11.390Z,99466.44
2022-08-07T13:30:49.147Z,99470.15
2022-08-07T13:34:33.577Z,99473.80
2022-08-07T13:36:39.402Z,99471.57
2022-08-07T13:39:49.225Z,99477.14
2022-08-07T13:42:19.139Z,99481.08
2022-08-07T13:45:11.732Z,99486.61
2022-08-07T13:48:06.094Z,99497.71
2022-08-07T13:50:34.240Z,99510.41
2022-08-07T13:53:21.975Z,99526.04
2022-08-07T13:55:54.586Z,99515.41
2022-08-07T13:58:56.187Z,99525.93
2022-08-07T14:01:26.551Z,99525.30
2022-08-07T14:04:09.617Z,99527.81
2022-08-07T14:06:40.826Z,99529.59
2022-08-07T14:09:16.968Z,99541.85
2022-08-07T14:12:10.309Z,99541.52
2022-08-07T14:14:51.279Z,99548.00
2022-08-07T14:18:13.617Z,99548.30
2022-08-07T14:20:41.883Z,99558.94
2022-08-07T14:23:17.951Z,99550.15
2022-08-07T14:26:05.705Z,99541.77
2022-08-07T14:28:57.124Z,99539.92
2022-08-07T14:31:42.372Z,99539.16
2022-08-07T14:34:20.185Z,99543.39
2022-08-07T14:36:56.344Z,99538.08
2022-08-07T14:40:17.213Z,99535.95
2022-08-07T14:42:18.597Z,99542.77
2022-08-07T14:44:59.753Z,99548.09
2022-08-07T14:47:47.201Z,99552.78
2022-08-07T14:50:19.824Z,99562.13
2022-08-07T14:52:50.191Z,99570.20
2022-08-07T14:55:18.830Z,99566.98
2022-08-07T14:57:58.517Z,99570.36
2022-08-07T15:00:31.240Z,99578.27
2022-08-07T15:03:19.045Z,99569.54
2022-08-07T15:05:54.174Z,99565.95
2022-08-07T15:08:47.603Z,99568.86
2022-08-07T15:11:50.805Z,99570.23
2022-08-07T15:14:17.994Z,99565.89
2022-08-07T15:16:54.735Z,99568.52
2022-08-07T15:20:30.426Z,99571.30
2022-08-07T15:22:29.080Z,99579.94
2022-08-07T15:25:12.890Z,99577.13
2022-08-07T15:28:32.339Z,99577.13
2022-08-07T15:33:33.881Z,99590.33
2022-08-07T15:36:05.713Z,99590.80
2022-08-07T15:44:23.850Z,99600.92
2022-08-07T15:47:03.652Z,99601.84
2022-08-07T15:52:30.331Z,99602.29
2022-08-07T15:55:03.386Z,99602.17
2022-08-07T15:57:47.528Z,99597.23
2022-08-07T16:00:31.696Z,99591.34
2022-08-07T16:03:21.745Z,99592.65
2022-08-07T16:05:59.195Z,99588.52
2022-08-07T16:08:37.884Z,99580.55
2022-08-07T16:11:26.281Z,99576.27
2022-08-07T16:14:09.541Z,99577.15
2022-08-07T16:16:56.987Z,99582.70
2022-08-07T16:19:42.196Z,99580.30
2022-08-07T16:22:54.900Z,99583.98
2022-08-07T16:25:52.677Z,99588.78
2022-08-07T16:29:18.540Z,99589.83
2022-08-07T16:31:51.329Z,99594.17
2022-08-07T16:34:45.265Z,99602.00
2022-08-07T16:38:06.318Z,99605.08
2022-08-07T16:41:54.288Z,99614.83
2022-08-07T16:45:14.791Z,99611.98
2022-08-07T16:47:51.287Z,99615.27
2022-08-07T16:50:48.157Z,99617.91
2022-08-07T16:54:01.252Z,99624.63
2022-08-07T16:56:43.063Z,99623.66
2022-08-07T16:59:46.167Z,99626.68
2022-08-07T17:03:05.946Z,99627.11
2022-08-07T17:06:28.651Z,99625.63
2022-08-07T17:09:04.159Z,99624.30
2022-08-07T17:12:04.705Z,99622.86
2022-08-07T17:15:00.582Z,99619.42
2022-08-07T17:17:49.546Z,99617.45
2022-08-07T17:20:38.040Z,99619.95
2022-08-07T17:23:12.839Z,99617.23
2022-08-07T17:26:24.344Z,99608.11
2022-08-07T17:28:58.471Z,99608.52
2022-08-07T17:31:44.225Z,99609.09
2022-08-07T17:35:08.872Z,99602.27
2022-08-07T17:38:09.625Z,99607.46
2022-08-07T17:40:34.373Z,99608.55
2022-08-07T17:43:15.253Z,99607.93
2022-08-07T17:45:55.778Z,99609.03
2022-08-07T17:48:31.934Z,99606.96
2022-08-07T17:51:01.700Z,99604.33
2022-08-07T17:54:02.256Z,99602.42
2022-08-07T17:56:29.884Z,99601.15
2022-08-07T17:58:57.338Z,99601.89
2022-08-07T18:01:46.505Z,99600.92
2022-08-07T18:04:40.399Z,99602.95
2022-08-07T18:07:24.465Z,99603.27
2022-08-07T18:10:33.068Z,99604.65
2022-08-07T18:13:16.949Z,99615.48
2022-08-07T18:16:03.451Z,99614.83
2022-08-07T18:21:12.638Z,99612.65
2022-08-07T18:22:05.385Z,99616.50
2022-08-07T18:24:41.291Z,99611.84
2022-08-07T18:27:44.896Z,99610.63
2022-08-07T18:30:32.785Z,99610.90
2022-08-07T18:33:35.209Z,99621.05
2022-08-07T18:36:32.714Z,99627.02
2022-08-07T18:40:07.320Z,99634.34
2022-08-07T18:42:17.194Z,99640.45
2022-08-07T18:45:44.363Z,99648.17
2022-08-07T18:48:02.507Z,99652.50
2022-08-07T18:50:48.236Z,99658.88
2022-08-07T18:53:21.921Z,99662.90
2022-08-07T18:56:19.328Z,99663.52
2022-08-07T18:59:47.085Z,99657.88
2022-08-07T19:02:18.365Z,99659.56
2022-08-07T19:05:15.454Z,99657.27
2022-08-07T19:08:03.751Z,99661.52
2022-08-07T19:10:49.832Z,99658.20
2022-08-07T19:13:35.904Z,99659.62
2022-08-07T19:16:42.939Z,99658.90
2022-08-07T19:19:19.280Z,99662.82
2022-08-07T19:22:11.170Z,99661.04
2022-08-07T19:24:44.666Z,99667.84
2022-08-07T19:28:57.868Z,99669.77
2022-08-07T19:31:00.551Z,99675.48
2022-08-07T19:33:10.152Z,99676.23
2022-08-07T19:35:46.901Z,99673.98
2022-08-07T19:38:17.663Z,99675.49
2022-08-07T19:40:50.438Z,99671.45
2022-08-07T19:43:48.938Z,99677.60
2022-08-07T19:46:17.827Z,99684.83
2022-08-07T19:48:56.399Z,99684.95
2022-08-07T19:51:52.839Z,99685.59
2022-08-07T19:54:33.335Z,99693.00
2022-08-07T19:58:01.619Z,99699.74
2022-08-07T19:59:59.956Z,99696.48
2022-08-07T20:02:39.198Z,99702.58
2022-08-07T20:05:11.600Z,99705.39
2022-08-07T20:07:46.509Z,99707.75
2022-08-07T20:10:36.711Z,99710.50
2022-08-07T20:13:27.111Z,99712.66
2022-08-07T20:16:01.363Z,99712.95
2022-08-07T20:18:33.373Z,99719.30
2022-08-07T20:21:21.143Z,99720.16
2022-08-07T20:23:57.819Z,99728.82
2022-08-07T20:26:38.704Z,99724.54
2022-08-07T20:29:47.200Z,99718.77
2022-08-07T20:32:05.964Z,99716.70
2022-08-07T20:34:50.817Z,99718.80
2022-08-07T20:37:46.828Z,99725.27
2022-08-07T20:40:32.985Z,99723.36
2022-08-07T20:43:03.761Z,99723.76
2022-08-07T20:46:27.149Z,99719.98
2022-08-07T20:48:34.482Z,99721.48
2022-08-07T20:51:09.505Z,99723.13
2022-08-07T20:54:04.580Z,99724.81
2022-08-07T20:56:32.313Z,99724.83
2022-08-07T20:59:05.062Z,99728.34
2022-08-07T21:01:45.851Z,99731.58
2022-08-07T21:04:28.053Z,99733.58
2022-08-07T21:07:04.306Z,99732.70
2022-08-07T21:09:52.740Z,99732.71
2022-08-07T21:12:31.896Z,99739.34
2022-08-07T21:15:03.446Z,99732.69
2022-08-07T21:18:03.233Z,99736.84
2022-08-07T21:20:29.688Z,99729.62
2022-08-07T21:23:07.638Z,99726.69
2022-08-07T21:26:05.769Z,99721.14
2022-08-07T21:28:50.306Z,99726.80
2022-08-07T21:31:50.140Z,99728.12
2022-08-07T21:34:31.919Z,99728.33
2022-08-07T21:37:02.017Z,99726.67
2022-08-07T21:39:55.147Z,99727.64
2022-08-07T21:42:56.256Z,99729.67
2022-08-07T21:46:09.984Z,99724.30
2022-08-07T21:48:42.349Z,99722.92
2022-08-07T21:51:54.557Z,99720.77
2022-08-07T21:54:58.081Z,99711.80
2022-08-07T21:57:39.354Z,99712.36
2022-08-07T22:00:23.246Z,99707.27
2022-08-07T22:03:30.660Z,99704.06
2022-08-07T22:06:06.554Z,99710.39
2022-08-07T22:08:42.635Z,99703.44
2022-08-07T22:11:11.483Z,99701.25
2022-08-07T22:13:51.848Z,99697.73
2022-08-07T22:16:56.591Z,99701.16
2022-08-07T22:19:38.994Z,99696.98
2022-08-07T22:22:28.669Z,99704.70
2022-08-07T22:25:03.388Z,99688.80
2022-08-07T22:27:34.028Z,99683.68
2022-08-07T22:30:26.585Z,99686.56
2022-08-07T22:33:09.319Z,99683.31
2022-08-07T22:35:45.963Z,99683.31
2022-08-07T22:38:24.065Z,99681.80
2022-08-07T22:42:04.219Z,99677.99
2022-08-07T22:44:24.804Z,99681.40
2022-08-07T22:47:17.170Z,99684.54
2022-08-07T22:49:54.521Z,99676.02
2022-08-07T22:52:47.128Z,99684.88
2022-08-07T22:55:43.640Z,99676.38
2022-08-07T22:58:39.529Z,99674.25
2022-08-07T23:01:50.018Z,99678.36
2022-08-07T23:04:53.358Z,99680.84
2022-08-07T23:07:46.608Z,99676.62
2022-08-07T23:10:45.592Z,99683.06
2022-08-07T23:13:49.191Z,99684.92
2022-08-07T23:16:46.682Z,99693.30
2022-08-07T23:20:19.508Z,99696.10
2022-08-07T23:23:14.646Z,99687.67
2022-08-07T23:26:18.760Z,99686.71
2022-08-07T23:29:01.808Z,99684.70
2022-08-07T23:34:18.597Z,99689.60
2022-08-07T23:35:12.579Z,99699.48
2022-08-07T23:38:04.101Z,99695.70
2022-08-07T23:40:49.275Z,99697.06
2022-08-07T23:43:52.754Z,99697.33
2022-08-07T23:46:43.196Z,99697.00
2022-08-07T23:49:50.669Z,99697.87
2022-08-07T23:52:53.853Z,99698.00
2022-08-07T23:55:53.448Z,99702.97
2022-08-07T23:58:31.883Z,99698.99
